Time;durP1;ratioP1;P1;durP2;ratioP2;P2;SDS_P1;SDS_P2;PMS_P1;PMS_P2;Temp;Humidity;BMP_temperature;BMP_pressure;BME280_temperature;BME280_humidity;BME280_pressure;Samples;Min_cycle;Max_cycle;Signal;HPM_P1;HPM_P2
2022/11/05 00:11:11;;;;;;;9.10;4.43;;;;;;;;;;5081357;28;20052;-56
2022/11/05 00:19:07;;;;;;;19.30;8.95;;;;;;;;;;5072688;28;20032;-56
2022/11/05 00:27:01;;;;;;;13.63;6.05;;;;;;;;;;5082660;28;20047;-56
2022/11/05 00:29:26;;;;;;;14.60;6.50;;;;;;;;;;5072904;28;20024;-56
2022/11/05 00:31:51;;;;;;;12.45;6.72;;;;;;;;;;5089319;28;20016;-56
2022/11/05 00:34:16;;;;;;;19.15;7.78;;;;;;;;;;5077109;28;20629;-57
2022/11/05 00:36:42;;;;;;;14.18;7.13;;;;;;;;;;5086959;28;20025;-56
2022/11/05 00:39:07;;;;;;;13.52;6.80;;;;;;;;;;5088416;28;20124;-55
2022/11/05 00:41:32;;;;;;;14.85;8.23;;;;;;;;;;5079120;28;20043;-57
2022/11/05 00:46:41;;;;;;;16.33;7.57;;;;;;;;;;5083202;28;20033;-57
2022/11/05 00:52:54;;;;;;;15.60;7.57;;;;;;;;;;5083105;28;20122;-57
2022/11/05 00:54:36;;;;;;;14.35;7.47;;;;;;;;;;5087326;28;20467;-56
2022/11/05 00:57:01;;;;;;;15.15;7.53;;;;;;;;;;5077192;28;20070;-56
2022/11/05 00:59:26;;;;;;;21.63;8.80;;;;;;;;;;5077457;28;20482;-57
2022/11/05 01:01:51;;;;;;;15.90;8.77;;;;;;;;;;5082273;28;20099;-56
2022/11/05 01:04:17;;;;;;;18.13;9.00;;;;;;;;;;5082805;28;20048;-57
2022/11/05 01:06:42;;;;;;;17.55;9.43;;;;;;;;;;5083307;28;20028;-56
2022/11/05 01:09:07;;;;;;;17.98;10.63;;;;;;;;;;5086813;28;20048;-56
2022/11/05 01:11:32;;;;;;;18.63;11.07;;;;;;;;;;5087329;28;20021;-56
2022/11/05 01:14:24;;;;;;;21.50;11.10;;;;;;;;;;5086774;28;20038;-56
2022/11/05 01:16:49;;;;;;;20.33;11.63;;;;;;;;;;5075141;28;20915;-57
2022/11/05 01:19:14;;;;;;;23.70;12.57;;;;;;;;;;5083827;28;20040;-57
2022/11/05 01:21:40;;;;;;;24.38;14.32;;;;;;;;;;5080534;28;20055;-57
2022/11/05 01:24:05;;;;;;;27.48;13.85;;;;;;;;;;5085371;28;20024;-57
2022/11/05 01:26:30;;;;;;;30.73;14.25;;;;;;;;;;5075176;28;20498;-57
2022/11/05 01:28:56;;;;;;;27.75;14.40;;;;;;;;;;5082354;28;20024;-56
2022/11/05 01:31:21;;;;;;;27.15;14.27;;;;;;;;;;5088373;28;20045;-56
2022/11/05 01:33:47;;;;;;;25.88;14.32;;;;;;;;;;5090705;28;20062;-56
2022/11/05 01:36:12;;;;;;;27.98;15.48;;;;;;;;;;5083150;28;20019;-57
2022/11/05 01:38:37;;;;;;;32.72;16.15;;;;;;;;;;5088650;28;20027;-57
2022/11/05 01:41:03;;;;;;;26.92;15.32;;;;;;;;;;5083085;28;20032;-56
2022/11/05 01:43:42;;;;;;;34.15;17.52;;;;;;;;;;5084017;28;20045;-57
2022/11/05 01:46:07;;;;;;;31.25;15.88;;;;;;;;;;5083750;28;20487;-57
2022/11/05 01:48:33;;;;;;;35.58;16.90;;;;;;;;;;5089329;28;20044;-57
2022/11/05 01:51:02;;;;;;;29.95;16.15;;;;;;;;;;5097352;28;20020;-57
2022/11/05 01:53:35;;;;;;;40.00;19.30;;;;;;;;;;5112447;27;20017;-57
2022/11/05 01:56:13;;;;;;;38.63;18.13;;;;;;;;;;5085244;28;20505;-57
2022/11/05 01:58:41;;;;;;;37.58;20.90;;;;;;;;;;5084223;28;20838;-56
2022/11/05 02:01:06;;;;;;;33.50;19.75;;;;;;;;;;5073639;28;20039;-57
2022/11/05 02:03:32;;;;;;;38.97;20.23;;;;;;;;;;5126230;27;20037;-57
2022/11/05 02:05:57;;;;;;;41.80;20.58;;;;;;;;;;5116962;27;20093;-57
2022/11/05 02:08:28;;;;;;;39.50;20.17;;;;;;;;;;5084321;28;20033;-57
2022/11/05 02:10:53;;;;;;;37.25;18.60;;;;;;;;;;5077470;28;20019;-57
2022/11/05 02:13:18;;;;;;;39.35;20.58;;;;;;;;;;5087310;28;20119;-57
2022/11/05 02:15:55;;;;;;;35.83;19.15;;;;;;;;;;5093898;28;20074;-56
2022/11/05 02:18:40;;;;;;;41.72;20.85;;;;;;;;;;5093114;28;20051;-57
2022/11/05 02:21:23;;;;;;;37.60;20.55;;;;;;;;;;5072895;28;20024;-57
2022/11/05 02:24:18;;;;;;;42.78;21.90;;;;;;;;;;5082923;28;20462;-57
2022/11/05 02:26:57;;;;;;;39.63;20.48;;;;;;;;;;5034917;28;20037;-57
2022/11/05 02:29:41;;;;;;;41.83;19.90;;;;;;;;;;5092035;28;20024;-56
2022/11/05 02:32:24;;;;;;;40.92;20.13;;;;;;;;;;5086050;28;20045;-57
2022/11/05 02:34:56;;;;;;;38.67;17.98;;;;;;;;;;5077675;28;20024;-57
2022/11/05 02:37:30;;;;;;;35.33;18.10;;;;;;;;;;5079114;28;20024;-57
2022/11/05 02:39:55;;;;;;;41.33;17.73;;;;;;;;;;5099355;28;20118;-57
2022/11/05 02:42:20;;;;;;;35.25;19.15;;;;;;;;;;5078031;28;20103;-57
2022/11/05 02:44:49;;;;;;;44.55;19.30;;;;;;;;;;5080368;28;20047;-57
2022/11/05 02:47:18;;;;;;;31.02;17.02;;;;;;;;;;5083579;28;20118;-57
2022/11/05 02:49:53;;;;;;;35.10;17.55;;;;;;;;;;5078616;28;20481;-57
2022/11/05 02:52:21;;;;;;;36.22;17.45;;;;;;;;;;5074696;28;20028;-57
2022/11/05 02:54:52;;;;;;;30.42;17.10;;;;;;;;;;5087314;28;20142;-57
2022/11/05 02:57:18;;;;;;;33.20;16.20;;;;;;;;;;5088355;28;20028;-57
2022/11/05 02:59:43;;;;;;;34.95;16.33;;;;;;;;;;5077998;28;20026;-57
2022/11/05 03:02:08;;;;;;;31.63;16.10;;;;;;;;;;5079785;28;20024;-57
2022/11/05 03:04:34;;;;;;;32.72;16.35;;;;;;;;;;5088458;28;20410;-57
2022/11/05 03:07:08;;;;;;;34.47;16.02;;;;;;;;;;5080598;28;20385;-56
2022/11/05 03:09:44;;;;;;;29.20;16.63;;;;;;;;;;5080966;28;20028;-57
2022/11/05 03:12:28;;;;;;;35.35;15.55;;;;;;;;;;5079006;28;20070;-57
2022/11/05 03:14:53;;;;;;;29.23;15.80;;;;;;;;;;5078355;28;20028;-56
2022/11/05 03:17:18;;;;;;;30.80;15.55;;;;;;;;;;5080739;28;20039;-57
2022/11/05 03:19:54;;;;;;;34.17;17.10;;;;;;;;;;5073352;28;20043;-56
2022/11/05 03:22:23;;;;;;;27.70;15.40;;;;;;;;;;5113892;27;20056;-57
2022/11/05 03:24:50;;;;;;;30.23;15.80;;;;;;;;;;5083702;28;20020;-57
2022/11/05 03:27:18;;;;;;;36.53;16.42;;;;;;;;;;5080438;28;20056;-56
2022/11/05 03:29:46;;;;;;;30.70;15.52;;;;;;;;;;5082234;28;20090;-57
2022/11/05 03:32:11;;;;;;;31.85;15.82;;;;;;;;;;5081087;28;20031;-56
2022/11/05 03:34:44;;;;;;;29.45;15.95;;;;;;;;;;5090451;28;20025;-57
2022/11/05 03:37:10;;;;;;;27.63;14.90;;;;;;;;;;5082557;28;20025;-57
2022/11/05 03:39:36;;;;;;;36.42;16.27;;;;;;;;;;5118899;27;20032;-56
2022/11/05 03:42:02;;;;;;;34.83;16.08;;;;;;;;;;5074690;28;20020;-57
2022/11/05 03:44:28;;;;;;;32.08;15.90;;;;;;;;;;5074220;28;20020;-57
2022/11/05 03:46:55;;;;;;;31.52;15.95;;;;;;;;;;5079965;28;20165;-57
2022/11/05 03:49:23;;;;;;;32.35;15.95;;;;;;;;;;5110945;27;20030;-57
2022/11/05 03:51:51;;;;;;;32.35;17.05;;;;;;;;;;5083411;28;20475;-57
2022/11/05 03:54:16;;;;;;;31.15;15.80;;;;;;;;;;5094413;28;20462;-57
2022/11/05 03:56:44;;;;;;;34.25;16.35;;;;;;;;;;5080429;28;20535;-57
2022/11/05 03:59:09;;;;;;;29.30;14.38;;;;;;;;;;5113201;27;20023;-57
2022/11/05 04:01:35;;;;;;;32.88;15.20;;;;;;;;;;5083235;28;20032;-57
2022/11/05 04:04:00;;;;;;;33.45;14.43;;;;;;;;;;5084670;28;20068;-57
2022/11/05 04:14:38;;;;;;;26.27;12.18;;;;;;;;;;5084995;28;20912;-57
2022/11/05 04:17:07;;;;;;;25.20;12.27;;;;;;;;;;5079741;28;20024;-57
2022/11/05 04:25:00;;;;;;;20.92;10.73;;;;;;;;;;5081663;28;20117;-58
2022/11/05 04:27:26;;;;;;;20.52;11.23;;;;;;;;;;5080975;28;20123;-57
2022/11/05 04:32:35;;;;;;;27.85;12.52;;;;;;;;;;5085179;28;20035;-56
2022/11/05 04:35:00;;;;;;;24.98;12.02;;;;;;;;;;5075928;28;20011;-56
2022/11/05 04:37:25;;;;;;;22.15;11.55;;;;;;;;;;5075050;28;20112;-57
2022/11/05 04:39:50;;;;;;;19.58;11.20;;;;;;;;;;5083578;28;20035;-56
2022/11/05 04:42:15;;;;;;;25.45;12.63;;;;;;;;;;5088397;28;20073;-57
2022/11/05 04:44:41;;;;;;;21.73;11.93;;;;;;;;;;5091152;28;20019;-56
2022/11/05 04:47:06;;;;;;;22.42;12.43;;;;;;;;;;5081721;28;20028;-56
2022/11/05 04:49:31;;;;;;;26.65;13.88;;;;;;;;;;5083073;28;20087;-55
2022/11/05 04:51:56;;;;;;;23.15;12.02;;;;;;;;;;5090491;28;20023;-57
2022/11/05 04:54:22;;;;;;;22.02;12.18;;;;;;;;;;5084696;28;20017;-57
2022/11/05 04:56:47;;;;;;;25.83;12.20;;;;;;;;;;5082466;28;20668;-57
2022/11/05 04:59:12;;;;;;;23.92;12.05;;;;;;;;;;5072271;28;20470;-57
2022/11/05 05:01:37;;;;;;;27.00;13.20;;;;;;;;;;5080942;28;20519;-56
2022/11/05 05:04:03;;;;;;;27.15;12.93;;;;;;;;;;5080956;28;20120;-56
2022/11/05 05:06:28;;;;;;;25.00;12.68;;;;;;;;;;5081370;28;20071;-57
2022/11/05 05:08:53;;;;;;;22.13;12.38;;;;;;;;;;5075002;28;20041;-56
2022/11/05 05:11:19;;;;;;;28.70;12.63;;;;;;;;;;5084433;28;20135;-56
2022/11/05 05:13:44;;;;;;;25.70;13.07;;;;;;;;;;5082433;28;20060;-56
2022/11/05 05:16:20;;;;;;;20.92;11.70;;;;;;;;;;5085692;28;20487;-56
2022/11/05 05:18:45;;;;;;;29.25;12.05;;;;;;;;;;5081686;28;20226;-57
2022/11/05 05:23:54;;;;;;;28.33;12.27;;;;;;;;;;5077406;28;20077;-56
2022/11/05 05:26:20;;;;;;;23.45;12.43;;;;;;;;;;5079453;28;20025;-57
2022/11/05 05:28:45;;;;;;;31.52;13.00;;;;;;;;;;5079839;28;20028;-56
2022/11/05 05:31:10;;;;;;;24.92;12.23;;;;;;;;;;5076229;28;20100;-56
2022/11/05 05:33:35;;;;;;;26.15;12.68;;;;;;;;;;5094781;28;20032;-56
2022/11/05 05:36:01;;;;;;;35.17;13.85;;;;;;;;;;5076338;28;20024;-56
2022/11/05 05:38:26;;;;;;;25.73;13.75;;;;;;;;;;5083117;28;20035;-56
2022/11/05 05:40:52;;;;;;;30.42;15.68;;;;;;;;;;5087393;28;20473;-56
2022/11/05 05:43:17;;;;;;;32.60;13.10;;;;;;;;;;5107403;27;20035;-57
2022/11/05 05:45:42;;;;;;;23.27;12.95;;;;;;;;;;5075715;28;20019;-57
2022/11/05 05:48:08;;;;;;;26.70;13.45;;;;;;;;;;5080734;28;20024;-56
2022/11/05 05:50:33;;;;;;;29.02;13.10;;;;;;;;;;5072067;28;20126;-57
2022/11/05 05:52:58;;;;;;;24.17;11.93;;;;;;;;;;5083764;28;20382;-57
2022/11/05 05:55:23;;;;;;;21.27;11.88;;;;;;;;;;5077090;28;20031;-56
2022/11/05 05:57:49;;;;;;;23.55;10.88;;;;;;;;;;5086865;28;20467;-56
2022/11/05 06:00:14;;;;;;;26.48;12.07;;;;;;;;;;5083760;28;20016;-56
2022/11/05 06:02:39;;;;;;;24.05;11.77;;;;;;;;;;5086157;28;20131;-56
2022/11/05 06:05:05;;;;;;;27.00;11.50;;;;;;;;;;5076790;28;20191;-56
2022/11/05 06:07:30;;;;;;;25.58;11.30;;;;;;;;;;5089850;28;20453;-58
2022/11/05 06:09:55;;;;;;;20.50;10.88;;;;;;;;;;5077960;28;20047;-57
2022/11/05 06:12:20;;;;;;;28.23;12.55;;;;;;;;;;5083088;28;20016;-56
2022/11/05 06:14:46;;;;;;;26.17;12.15;;;;;;;;;;5094603;28;20027;-56
2022/11/05 06:17:11;;;;;;;27.33;11.40;;;;;;;;;;5080643;28;20255;-55
2022/11/05 06:19:36;;;;;;;26.13;12.25;;;;;;;;;;5079697;28;20116;-55
2022/11/05 06:22:03;;;;;;;28.65;13.20;;;;;;;;;;5082134;28;20056;-56
2022/11/05 06:24:28;;;;;;;25.75;12.07;;;;;;;;;;5097649;28;20115;-55
2022/11/05 06:26:53;;;;;;;33.97;14.05;;;;;;;;;;5087472;28;20111;-55
2022/11/05 06:29:19;;;;;;;23.45;12.63;;;;;;;;;;5083084;28;20096;-56
2022/11/05 06:31:44;;;;;;;29.98;13.85;;;;;;;;;;5082776;28;20055;-56
2022/11/05 06:34:09;;;;;;;28.48;12.32;;;;;;;;;;5086421;28;20023;-56
2022/11/05 06:36:34;;;;;;;24.00;12.45;;;;;;;;;;5078653;28;20028;-58
2022/11/05 06:38:59;;;;;;;29.13;13.65;;;;;;;;;;5073145;28;20520;-56
2022/11/05 06:41:25;;;;;;;24.23;13.13;;;;;;;;;;5078003;28;20601;-58
2022/11/05 06:43:50;;;;;;;28.25;13.13;;;;;;;;;;5086635;28;20379;-58
2022/11/05 06:46:15;;;;;;;28.10;14.45;;;;;;;;;;5079040;28;20414;-58
2022/11/05 06:48:41;;;;;;;24.83;13.07;;;;;;;;;;5090616;28;20632;-57
2022/11/05 06:51:06;;;;;;;24.73;12.20;;;;;;;;;;5077499;28;20020;-57
2022/11/05 06:53:31;;;;;;;31.55;12.25;;;;;;;;;;5081721;28;20020;-56
2022/11/05 06:56:00;;;;;;;21.08;11.10;;;;;;;;;;5073305;28;20417;-56
2022/11/05 06:58:26;;;;;;;23.05;11.40;;;;;;;;;;5086415;28;20450;-56
2022/11/05 07:00:51;;;;;;;22.60;10.75;;;;;;;;;;5087539;28;20107;-58
2022/11/05 07:03:16;;;;;;;21.80;11.23;;;;;;;;;;5091673;28;20052;-55
2022/11/05 07:05:42;;;;;;;30.10;10.95;;;;;;;;;;5079398;28;20687;-56
2022/11/05 07:08:08;;;;;;;21.08;10.07;;;;;;;;;;5071929;28;20023;-56
2022/11/05 07:10:33;;;;;;;17.88;9.82;;;;;;;;;;5078454;28;20111;-58
2022/11/05 07:12:58;;;;;;;20.17;9.05;;;;;;;;;;5075135;28;20106;-58
2022/11/05 07:15:23;;;;;;;21.48;9.15;;;;;;;;;;5080379;28;20027;-57
2022/11/05 07:17:49;;;;;;;18.23;10.52;;;;;;;;;;5079976;28;20012;-58
2022/11/05 07:20:14;;;;;;;25.02;12.30;;;;;;;;;;5075799;28;20024;-59
2022/11/05 07:22:39;;;;;;;20.73;11.20;;;;;;;;;;5075575;28;20016;-56
2022/11/05 07:25:05;;;;;;;22.20;10.25;;;;;;;;;;5080950;28;20024;-57
2022/11/05 07:27:30;;;;;;;19.85;10.43;;;;;;;;;;5077288;28;20040;-56
2022/11/05 07:29:55;;;;;;;18.88;9.77;;;;;;;;;;5085533;28;20023;-57
2022/11/05 07:32:20;;;;;;;20.80;9.20;;;;;;;;;;5075844;28;20021;-55
2022/11/05 07:34:46;;;;;;;19.60;9.98;;;;;;;;;;5074463;28;20115;-56
2022/11/05 07:37:11;;;;;;;16.38;9.13;;;;;;;;;;5084246;28;20059;-56
2022/11/05 07:39:36;;;;;;;14.52;8.52;;;;;;;;;;5077515;28;20121;-57
2022/11/05 07:42:01;;;;;;;18.50;8.50;;;;;;;;;;5082921;28;20008;-57
2022/11/05 07:44:27;;;;;;;16.58;9.30;;;;;;;;;;5073628;28;20401;-58
2022/11/05 07:46:52;;;;;;;15.10;8.52;;;;;;;;;;5077786;28;20024;-57
2022/11/05 07:49:17;;;;;;;11.18;6.30;;;;;;;;;;5087547;28;20030;-57
2022/11/05 07:51:42;;;;;;;20.48;9.40;;;;;;;;;;5086722;28;20012;-56
2022/11/05 07:54:08;;;;;;;18.90;8.90;;;;;;;;;;5085551;28;20036;-57
2022/11/05 07:56:33;;;;;;;20.67;7.93;;;;;;;;;;5079582;28;20040;-56
2022/11/05 07:58:58;;;;;;;14.40;7.80;;;;;;;;;;5081454;28;20078;-56
2022/11/05 08:01:23;;;;;;;16.27;8.27;;;;;;;;;;5090430;28;20024;-59
2022/11/05 08:03:48;;;;;;;17.45;9.05;;;;;;;;;;5081514;28;20024;-57
2022/11/05 08:06:14;;;;;;;17.48;8.82;;;;;;;;;;5070256;28;20350;-56
2022/11/05 08:08:39;;;;;;;16.65;7.97;;;;;;;;;;5074511;28;20447;-57
2022/11/05 08:11:05;;;;;;;18.15;8.40;;;;;;;;;;5075355;28;20024;-57
2022/11/05 08:13:30;;;;;;;13.43;8.55;;;;;;;;;;5082730;28;20036;-57
2022/11/05 08:15:56;;;;;;;16.00;9.15;;;;;;;;;;5084781;28;20402;-57
2022/11/05 08:18:21;;;;;;;18.85;8.32;;;;;;;;;;5089778;28;20062;-57
2022/11/05 08:20:47;;;;;;;16.73;8.65;;;;;;;;;;5088661;28;20113;-57
2022/11/05 08:23:12;;;;;;;17.48;9.00;;;;;;;;;;5074055;28;20478;-59
2022/11/05 08:25:38;;;;;;;18.50;9.15;;;;;;;;;;5085824;28;20470;-57
2022/11/05 08:28:04;;;;;;;17.98;9.40;;;;;;;;;;5094509;28;20528;-58
2022/11/05 08:30:30;;;;;;;19.17;9.30;;;;;;;;;;5072171;28;20317;-59
2022/11/05 08:32:59;;;;;;;18.30;9.05;;;;;;;;;;5081537;28;20355;-58
2022/11/05 08:35:24;;;;;;;14.73;8.88;;;;;;;;;;5080866;28;20040;-59
2022/11/05 08:37:49;;;;;;;20.15;8.10;;;;;;;;;;5081689;28;20414;-58
2022/11/05 08:40:15;;;;;;;17.73;9.20;;;;;;;;;;5072880;28;20016;-58
2022/11/05 08:42:40;;;;;;;15.60;9.02;;;;;;;;;;5083721;28;20031;-58
2022/11/05 08:45:05;;;;;;;16.42;7.85;;;;;;;;;;5067127;28;20103;-58
2022/11/05 08:47:31;;;;;;;16.45;7.90;;;;;;;;;;5079363;28;20032;-58
2022/11/05 08:49:56;;;;;;;15.18;8.27;;;;;;;;;;5085219;28;20028;-58
2022/11/05 08:52:21;;;;;;;15.80;9.00;;;;;;;;;;5072669;28;20382;-56
2022/11/05 08:54:47;;;;;;;12.00;7.40;;;;;;;;;;5089179;28;20016;-56
2022/11/05 08:57:12;;;;;;;14.82;7.05;;;;;;;;;;5076342;28;20048;-57
2022/11/05 08:59:37;;;;;;;12.00;7.35;;;;;;;;;;5080175;28;20392;-58
2022/11/05 09:02:02;;;;;;;13.95;7.20;;;;;;;;;;5088021;28;20107;-58
2022/11/05 09:04:27;;;;;;;15.00;6.55;;;;;;;;;;5079859;28;20127;-58
2022/11/05 09:06:53;;;;;;;12.13;7.03;;;;;;;;;;5080315;28;20108;-58
2022/11/05 09:09:18;;;;;;;15.07;7.18;;;;;;;;;;5082870;28;20055;-58
2022/11/05 09:11:43;;;;;;;10.75;6.93;;;;;;;;;;5088222;28;20093;-58
2022/11/05 09:14:09;;;;;;;12.23;6.72;;;;;;;;;;5086877;28;20016;-58
2022/11/05 09:16:35;;;;;;;11.45;7.03;;;;;;;;;;5091783;28;20466;-58
2022/11/05 09:19:03;;;;;;;8.25;5.78;;;;;;;;;;5085060;28;20036;-58
2022/11/05 09:21:28;;;;;;;12.65;6.47;;;;;;;;;;5113369;27;20089;-58
2022/11/05 09:23:53;;;;;;;10.52;5.47;;;;;;;;;;5076830;28;20641;-58
2022/11/05 09:26:18;;;;;;;9.18;5.70;;;;;;;;;;5085453;28;20009;-58
2022/11/05 09:28:43;;;;;;;14.02;6.45;;;;;;;;;;5092968;28;20050;-58
2022/11/05 09:31:09;;;;;;;9.90;6.03;;;;;;;;;;5081104;28;20107;-57
2022/11/05 09:33:35;;;;;;;8.77;5.80;;;;;;;;;;5076262;28;20047;-58
2022/11/05 09:36:00;;;;;;;10.60;6.65;;;;;;;;;;5089696;28;20053;-58
2022/11/05 09:38:25;;;;;;;9.82;6.15;;;;;;;;;;5085905;28;20361;-57
2022/11/05 09:41:01;;;;;;;11.13;5.97;;;;;;;;;;5090799;28;20470;-58
2022/11/05 09:43:29;;;;;;;10.25;6.18;;;;;;;;;;5111643;27;20036;-58
2022/11/05 09:45:55;;;;;;;12.77;7.03;;;;;;;;;;5075088;28;20027;-58
2022/11/05 09:48:21;;;;;;;15.07;6.65;;;;;;;;;;5079895;28;20044;-57
2022/11/05 09:50:46;;;;;;;12.52;6.38;;;;;;;;;;5087157;28;20103;-58
2022/11/05 09:53:12;;;;;;;11.00;6.80;;;;;;;;;;5081657;28;20123;-58
2022/11/05 09:55:38;;;;;;;11.70;6.88;;;;;;;;;;5078462;28;20062;-58
2022/11/05 09:58:09;;;;;;;11.40;5.57;;;;;;;;;;5082076;28;20032;-58
2022/11/05 10:00:34;;;;;;;12.77;6.13;;;;;;;;;;5093555;28;20024;-58
2022/11/05 10:03:02;;;;;;;10.55;6.18;;;;;;;;;;5077091;28;20032;-57
2022/11/05 10:05:28;;;;;;;8.82;5.78;;;;;;;;;;5090205;28;20536;-57
2022/11/05 10:07:55;;;;;;;11.45;6.07;;;;;;;;;;5083145;28;20064;-57
2022/11/05 10:10:24;;;;;;;11.75;6.50;;;;;;;;;;5081346;28;20067;-58
2022/11/05 10:12:49;;;;;;;8.63;6.30;;;;;;;;;;5089151;28;20445;-58
2022/11/05 10:15:22;;;;;;;13.35;7.32;;;;;;;;;;5085601;28;20024;-58
2022/11/05 10:17:52;;;;;;;13.00;6.45;;;;;;;;;;5082130;28;20258;-58
2022/11/05 10:20:19;;;;;;;11.00;6.45;;;;;;;;;;5088270;28;20032;-58
2022/11/05 10:22:45;;;;;;;13.55;7.72;;;;;;;;;;5077914;28;20097;-58
2022/11/05 10:25:17;;;;;;;15.82;7.63;;;;;;;;;;5075723;28;20028;-58
2022/11/05 10:27:43;;;;;;;12.10;7.90;;;;;;;;;;5091127;28;20046;-58
2022/11/05 10:30:12;;;;;;;12.23;7.57;;;;;;;;;;5073651;28;20032;-58
2022/11/05 10:32:37;;;;;;;12.80;7.10;;;;;;;;;;5076163;28;20442;-58
2022/11/05 10:35:03;;;;;;;13.63;7.78;;;;;;;;;;5080360;28;20099;-58
2022/11/05 10:37:29;;;;;;;10.85;6.70;;;;;;;;;;5073915;28;20062;-58
2022/11/05 10:39:54;;;;;;;12.20;6.65;;;;;;;;;;5083008;28;20024;-58
2022/11/05 10:42:36;;;;;;;17.48;10.85;;;;;;;;;;5056967;28;20177;-58
2022/11/05 10:45:04;;;;;;;14.25;7.60;;;;;;;;;;5079754;28;20024;-58
2022/11/05 10:47:29;;;;;;;12.73;7.82;;;;;;;;;;5081028;28;20355;-58
2022/11/05 10:49:58;;;;;;;13.63;7.60;;;;;;;;;;5078124;28;20016;-58
2022/11/05 10:52:23;;;;;;;9.93;6.80;;;;;;;;;;5078181;28;20028;-57
2022/11/05 10:54:49;;;;;;;13.05;7.43;;;;;;;;;;5080532;28;20035;-58
2022/11/05 10:57:27;;;;;;;10.55;6.82;;;;;;;;;;5076585;28;20474;-58
2022/11/05 10:59:52;;;;;;;12.38;6.88;;;;;;;;;;5080555;28;20110;-58
2022/11/05 11:02:22;;;;;;;10.77;6.20;;;;;;;;;;5077090;28;20062;-58
2022/11/05 11:04:50;;;;;;;10.95;6.05;;;;;;;;;;5083771;28;20053;-58
2022/11/05 11:07:18;;;;;;;13.63;6.88;;;;;;;;;;5085342;28;20040;-58
2022/11/05 11:09:45;;;;;;;12.32;6.45;;;;;;;;;;5078174;28;20036;-58
2022/11/05 11:12:12;;;;;;;9.90;6.80;;;;;;;;;;5077601;28;20398;-58
2022/11/05 11:14:38;;;;;;;10.32;6.90;;;;;;;;;;5085280;28;20543;-57
2022/11/05 11:17:26;;;;;;;11.73;6.88;;;;;;;;;;5091540;28;20036;-57
2022/11/05 11:20:10;;;;;;;12.73;6.10;;;;;;;;;;5086448;28;20504;-57
2022/11/05 11:22:35;;;;;;;12.60;5.82;;;;;;;;;;5083724;28;20319;-57
2022/11/05 11:25:00;;;;;;;10.60;6.45;;;;;;;;;;5085858;28;20731;-57
2022/11/05 11:27:26;;;;;;;11.38;6.03;;;;;;;;;;5120685;27;20723;-57
2022/11/05 11:29:58;;;;;;;10.73;6.72;;;;;;;;;;5086552;28;20015;-58
2022/11/05 11:32:25;;;;;;;11.45;5.93;;;;;;;;;;5079335;28;20031;-57
2022/11/05 11:34:51;;;;;;;14.25;6.68;;;;;;;;;;5072431;28;20021;-58
2022/11/05 11:37:23;;;;;;;10.88;6.45;;;;;;;;;;5112682;27;20062;-57
2022/11/05 11:39:50;;;;;;;13.45;7.75;;;;;;;;;;5075662;28;20031;-58
2022/11/05 11:42:24;;;;;;;13.05;6.63;;;;;;;;;;5074246;28;20032;-57
2022/11/05 11:44:49;;;;;;;11.27;6.85;;;;;;;;;;5073867;28;20059;-57
2022/11/05 11:47:15;;;;;;;12.60;7.20;;;;;;;;;;5072898;28;20020;-58
2022/11/05 11:49:40;;;;;;;15.65;7.03;;;;;;;;;;5080476;28;20512;-57
2022/11/05 11:52:12;;;;;;;9.63;6.45;;;;;;;;;;5074827;28;20016;-57
2022/11/05 11:54:38;;;;;;;10.90;6.20;;;;;;;;;;5091284;28;20038;-57
2022/11/05 11:57:17;;;;;;;13.50;6.57;;;;;;;;;;5079544;28;20019;-57
2022/11/05 11:59:42;;;;;;;13.45;6.55;;;;;;;;;;5071394;28;20063;-57
2022/11/05 12:02:25;;;;;;;11.70;6.47;;;;;;;;;;5078416;28;20097;-57
2022/11/05 12:04:51;;;;;;;11.23;6.50;;;;;;;;;;5074981;28;20053;-57
2022/11/05 12:07:22;;;;;;;13.02;6.72;;;;;;;;;;5077111;28;20040;-57
2022/11/05 12:09:56;;;;;;;10.98;7.10;;;;;;;;;;5079380;28;20049;-58
2022/11/05 12:12:24;;;;;;;16.33;6.68;;;;;;;;;;5077514;28;20090;-57
2022/11/05 12:14:58;;;;;;;13.05;6.80;;;;;;;;;;5081416;28;20257;-58
2022/11/05 12:17:23;;;;;;;13.93;6.43;;;;;;;;;;5113284;27;20055;-58
2022/11/05 12:19:51;;;;;;;11.68;5.90;;;;;;;;;;5078765;28;20446;-58
2022/11/05 12:22:35;;;;;;;11.73;5.82;;;;;;;;;;5089478;28;20097;-57
2022/11/05 12:25:04;;;;;;;10.40;5.85;;;;;;;;;;5075120;28;20051;-58
2022/11/05 12:27:52;;;;;;;12.60;7.43;;;;;;;;;;5077285;28;20057;-56
2022/11/05 12:30:18;;;;;;;13.25;6.88;;;;;;;;;;5027980;28;20063;-57
2022/11/05 12:33:02;;;;;;;13.70;6.85;;;;;;;;;;5067799;28;20265;-56
2022/11/05 12:35:35;;;;;;;13.05;6.95;;;;;;;;;;5069942;28;20020;-56
2022/11/05 12:38:06;;;;;;;17.50;6.85;;;;;;;;;;5068909;28;20020;-56
2022/11/05 12:40:46;;;;;;;13.82;6.80;;;;;;;;;;5074902;28;20134;-58
2022/11/05 12:43:20;;;;;;;14.93;8.73;;;;;;;;;;5070247;28;20054;-58
2022/11/05 12:46:01;;;;;;;13.27;7.32;;;;;;;;;;5069082;28;20031;-56
2022/11/05 12:48:36;;;;;;;12.77;7.88;;;;;;;;;;5080732;28;20051;-57
2022/11/05 12:51:10;;;;;;;14.35;7.80;;;;;;;;;;5081325;28;20502;-56
2022/11/05 12:54:04;;;;;;;11.45;6.78;;;;;;;;;;5071389;28;20142;-56
2022/11/05 12:56:30;;;;;;;10.95;6.90;;;;;;;;;;5063053;28;20024;-56
2022/11/05 12:59:09;;;;;;;14.50;6.32;;;;;;;;;;5092229;28;20186;-57
2022/11/05 13:01:36;;;;;;;12.37;7.20;;;;;;;;;;5076290;28;20031;-56
2022/11/05 13:04:07;;;;;;;10.43;6.70;;;;;;;;;;5083951;28;20062;-57
2022/11/05 13:06:34;;;;;;;10.68;5.35;;;;;;;;;;5098080;28;20043;-57
2022/11/05 13:08:59;;;;;;;11.18;6.28;;;;;;;;;;5082959;28;20035;-58
2022/11/05 13:11:25;;;;;;;9.95;6.32;;;;;;;;;;5082916;28;20020;-57
2022/11/05 13:14:02;;;;;;;10.10;5.65;;;;;;;;;;5084175;28;20430;-57
2022/11/05 13:16:34;;;;;;;11.40;5.95;;;;;;;;;;5079443;28;20483;-56
2022/11/05 13:19:05;;;;;;;9.60;6.25;;;;;;;;;;5084419;28;20553;-57
2022/11/05 13:21:30;;;;;;;11.90;6.28;;;;;;;;;;5085623;28;20069;-56
2022/11/05 13:24:08;;;;;;;10.23;6.07;;;;;;;;;;5083794;28;20422;-56
2022/11/05 13:26:49;;;;;;;13.93;5.47;;;;;;;;;;5082302;28;20030;-57
2022/11/05 13:29:16;;;;;;;9.77;5.47;;;;;;;;;;5083266;28;20103;-57
2022/11/05 13:32:00;;;;;;;8.38;4.70;;;;;;;;;;5080346;28;20405;-56
2022/11/05 13:34:25;;;;;;;10.02;5.80;;;;;;;;;;5080843;28;20378;-57
2022/11/05 13:39:40;;;;;;;10.38;5.40;;;;;;;;;;5084897;28;20038;-57
2022/11/05 13:42:12;;;;;;;11.25;5.38;;;;;;;;;;5082052;28;20110;-56
2022/11/05 13:44:41;;;;;;;8.60;4.80;;;;;;;;;;5115842;27;20123;-56
2022/11/05 13:47:15;;;;;;;11.20;5.20;;;;;;;;;;5068673;28;20438;-56
2022/11/05 13:50:00;;;;;;;13.18;4.90;;;;;;;;;;5085093;28;20027;-56
2022/11/05 13:52:36;;;;;;;13.13;6.03;;;;;;;;;;5049789;28;20063;-57
2022/11/05 13:55:34;;;;;;;13.30;5.60;;;;;;;;;;5079992;28;20265;-57
2022/11/05 13:58:05;;;;;;;9.55;5.53;;;;;;;;;;5048796;28;20039;-57
2022/11/05 14:01:00;;;;;;;12.18;5.75;;;;;;;;;;5075508;28;20392;-57
2022/11/05 14:03:25;;;;;;;12.05;6.25;;;;;;;;;;5073294;28;20036;-57
2022/11/05 14:06:10;;;;;;;12.00;6.05;;;;;;;;;;5080099;28;20048;-57
2022/11/05 14:08:40;;;;;;;11.05;6.13;;;;;;;;;;5087446;28;20127;-57
2022/11/05 14:11:12;;;;;;;13.38;5.97;;;;;;;;;;5112284;27;20024;-57
2022/11/05 14:13:38;;;;;;;12.05;6.28;;;;;;;;;;5117575;27;20108;-57
2022/11/05 14:16:15;;;;;;;11.35;5.80;;;;;;;;;;5090137;28;20034;-57
2022/11/05 14:18:45;;;;;;;13.57;7.10;;;;;;;;;;5080362;28;20112;-57
2022/11/05 14:21:25;;;;;;;11.57;6.18;;;;;;;;;;5068254;28;20100;-57
2022/11/05 14:23:52;;;;;;;14.80;6.72;;;;;;;;;;5080373;28;20490;-57
2022/11/05 14:26:20;;;;;;;11.68;6.32;;;;;;;;;;5079750;28;20032;-57
2022/11/05 14:28:46;;;;;;;14.55;6.43;;;;;;;;;;5077644;28;20398;-57
2022/11/05 14:31:11;;;;;;;16.70;6.95;;;;;;;;;;5079567;28;20033;-57
2022/11/05 14:33:37;;;;;;;17.45;7.10;;;;;;;;;;5081435;28;20027;-56
2022/11/05 14:36:20;;;;;;;12.55;6.50;;;;;;;;;;5075996;28;20039;-57
2022/11/05 14:38:49;;;;;;;18.95;9.00;;;;;;;;;;5079415;28;20039;-57
2022/11/05 14:41:15;;;;;;;12.20;6.85;;;;;;;;;;5083842;28;20024;-57
2022/11/05 14:43:49;;;;;;;22.02;11.20;;;;;;;;;;5084022;28;20039;-57
2022/11/05 14:46:14;;;;;;;10.70;6.53;;;;;;;;;;5078649;28;20027;-57
2022/11/05 14:48:48;;;;;;;11.40;7.43;;;;;;;;;;5097926;27;20032;-56
2022/11/05 14:51:23;;;;;;;13.82;6.45;;;;;;;;;;5069717;28;20032;-57
2022/11/05 14:53:48;;;;;;;14.57;6.65;;;;;;;;;;5076095;28;20067;-57
2022/11/05 14:56:14;;;;;;;14.65;6.40;;;;;;;;;;5078418;28;20031;-58
2022/11/05 14:58:39;;;;;;;12.73;6.47;;;;;;;;;;5074497;28;20139;-59
2022/11/05 15:01:06;;;;;;;12.50;6.65;;;;;;;;;;5079608;28;20023;-58
2022/11/05 15:03:31;;;;;;;16.67;7.53;;;;;;;;;;5077571;28;20843;-57
2022/11/05 15:06:14;;;;;;;51.80;28.38;;;;;;;;;;5085476;28;20039;-57
2022/11/05 15:08:49;;;;;;;26.20;17.15;;;;;;;;;;5084438;28;20031;-57
2022/11/05 15:11:37;;;;;;;16.40;7.95;;;;;;;;;;5074918;28;20020;-57
2022/11/05 15:14:18;;;;;;;14.45;6.95;;;;;;;;;;5079152;28;20067;-59
2022/11/05 15:16:46;;;;;;;13.82;8.02;;;;;;;;;;5078991;28;20118;-56
2022/11/05 15:19:33;;;;;;;15.88;9.48;;;;;;;;;;5077516;28;20413;-57
2022/11/05 15:22:00;;;;;;;11.90;7.95;;;;;;;;;;5083319;28;20318;-58